createdAt,value
2022-09-01T00:01:43.266Z,62.71
2022-09-01T00:04:13.673Z,62.94
2022-09-01T00:06:41.349Z,62.94
2022-09-01T00:09:12.253Z,62.96
2022-09-01T00:11:40.657Z,62.99
2022-09-01T00:14:09.886Z,62.99
2022-09-01T00:16:57.762Z,63.01
2022-09-01T00:19:25.341Z,62.90
2022-09-01T00:21:52.369Z,63.16
2022-09-01T00:24:20.465Z,63.14
2022-09-01T00:26:47.792Z,63.07
2022-09-01T00:29:15.882Z,63.00
2022-09-01T00:31:43.520Z,63.05
2022-09-01T00:34:10.382Z,62.91
2022-09-01T00:36:37.433Z,62.85
2022-09-01T00:39:06.191Z,63.07
2022-09-01T00:41:35.484Z,63.06
2022-09-01T00:44:06.927Z,63.16
2022-09-01T00:46:47.563Z,63.17
2022-09-01T00:49:35.929Z,62.99
2022-09-01T00:52:08.235Z,62.98
2022-09-01T00:54:40.810Z,62.95
2022-09-01T00:57:09.272Z,62.88
2022-09-01T00:59:42.378Z,62.91
2022-09-01T01:02:11.146Z,62.92
2022-09-01T01:04:38.398Z,62.98
2022-09-01T01:07:06.850Z,63.05
2022-09-01T01:09:38.813Z,63.33
2022-09-01T01:12:07.061Z,63.65
2022-09-01T01:14:37.062Z,63.72
2022-09-01T01:17:04.274Z,63.32
2022-09-01T01:20:03.915Z,63.25
2022-09-01T01:23:05.764Z,63.63
2022-09-01T01:25:41.021Z,63.63
2022-09-01T01:28:14.533Z,63.81
2022-09-01T01:30:49.232Z,63.66
2022-09-01T01:33:16.039Z,63.67
2022-09-01T01:35:43.904Z,63.52
2022-09-01T01:38:11.625Z,63.33
2022-09-01T01:40:39.150Z,63.05
2022-09-01T01:43:06.341Z,63.47
2022-09-01T01:45:33.945Z,63.47
2022-09-01T01:48:08.746Z,63.51
2022-09-01T01:50:36.986Z,63.38
2022-09-01T01:53:10.867Z,63.25
2022-09-01T01:55:40.454Z,63.43
2022-09-01T01:58:08.273Z,63.05
2022-09-01T02:00:35.190Z,63.11
2022-09-01T02:03:02.359Z,63.29
2022-09-01T02:05:32.584Z,63.34
2022-09-01T02:08:04.934Z,63.27
2022-09-01T02:10:53.534Z,63.65
2022-09-01T02:13:31.426Z,63.02
2022-09-01T02:16:07.856Z,63.11
2022-09-01T02:18:42.230Z,63.33
2022-09-01T02:21:16.282Z,63.57
2022-09-01T02:23:44.928Z,63.33
2022-09-01T02:26:16.880Z,63.38
2022-09-01T02:28:54.655Z,63.10
2022-09-01T02:31:23.863Z,63.17
2022-09-01T02:33:51.304Z,63.04
2022-09-01T02:36:19.790Z,63.18
2022-09-01T02:38:53.199Z,63.57
2022-09-01T02:41:25.379Z,63.72
2022-09-01T02:43:52.406Z,63.63
2022-09-01T02:46:24.396Z,64.09
2022-09-01T02:48:52.024Z,63.81
2022-09-01T02:51:22.604Z,63.64
2022-09-01T02:53:53.176Z,63.93
2022-09-01T02:56:25.539Z,63.70
2022-09-01T02:58:53.465Z,63.88
2022-09-01T03:01:25.590Z,63.70
2022-09-01T03:03:55.799Z,63.70
2022-09-01T03:06:24.632Z,64.13
2022-09-01T03:08:56.747Z,64.00
2022-09-01T03:11:24.834Z,64.10
2022-09-01T03:13:53.100Z,63.96
2022-09-01T03:16:20.379Z,63.86
2022-09-01T03:18:47.214Z,63.72
2022-09-01T03:21:17.257Z,64.15
2022-09-01T03:23:45.977Z,64.28
2022-09-01T03:26:14.252Z,63.88
2022-09-01T03:28:41.393Z,63.83
2022-09-01T03:31:09.307Z,63.41
2022-09-01T03:33:36.981Z,63.68
2022-09-01T03:36:14.892Z,63.56
2022-09-01T03:38:44.276Z,63.61
2022-09-01T03:41:13.377Z,63.71
2022-09-01T03:43:47.031Z,63.67
2022-09-01T03:46:23.357Z,63.63
2022-09-01T03:48:58.789Z,63.45
2022-09-01T03:51:26.528Z,63.64
2022-09-01T03:53:55.198Z,63.45
2022-09-01T03:56:24.792Z,63.25
2022-09-01T03:58:52.294Z,62.86
2022-09-01T04:01:20.022Z,62.54
2022-09-01T04:03:51.386Z,62.76
2022-09-01T04:06:24.519Z,62.44
2022-09-01T04:09:03.276Z,62.76
2022-09-01T04:11:31.046Z,63.00
2022-09-01T04:13:58.593Z,62.73
2022-09-01T04:16:50.444Z,62.96
2022-09-01T04:19:26.354Z,62.93
2022-09-01T04:22:00.005Z,63.09
2022-09-01T04:24:28.545Z,63.05
2022-09-01T04:26:58.712Z,63.20
2022-09-01T04:29:29.833Z,63.46
2022-09-01T04:32:03.940Z,63.21
2022-09-01T04:34:37.668Z,63.40
2022-09-01T04:37:21.344Z,63.23
2022-09-01T04:39:56.320Z,63.87
2022-09-01T04:42:29.461Z,64.02
2022-09-01T04:44:57.884Z,64.52
2022-09-01T04:47:36.163Z,64.21
2022-09-01T04:50:13.318Z,64.58
2022-09-01T04:52:42.348Z,64.39
2022-09-01T04:55:18.008Z,64.65
2022-09-01T04:57:49.789Z,64.20
2022-09-01T05:00:25.506Z,64.10
2022-09-01T05:03:04.829Z,63.76
2022-09-01T05:05:39.741Z,63.69
2022-09-01T05:08:12.766Z,63.78
2022-09-01T05:10:45.038Z,63.85
2022-09-01T05:13:14.021Z,63.33
2022-09-01T05:15:46.858Z,63.39
2022-09-01T05:18:23.485Z,63.38
2022-09-01T05:20:52.614Z,63.42
2022-09-01T05:23:20.689Z,63.37
2022-09-01T05:25:55.046Z,63.49
2022-09-01T05:28:25.485Z,63.51
2022-09-01T05:30:54.372Z,63.59
2022-09-01T05:33:22.188Z,63.67
2022-09-01T05:36:02.267Z,63.62
2022-09-01T05:38:31.002Z,64.30
2022-09-01T05:41:04.869Z,63.95
2022-09-01T05:43:33.731Z,64.38
2022-09-01T05:46:07.237Z,64.83
2022-09-01T05:48:40.460Z,64.47
2022-09-01T05:51:22.388Z,63.98
2022-09-01T05:53:59.411Z,64.09
2022-09-01T05:56:28.563Z,64.10
2022-09-01T06:01:46.838Z,64.26
2022-09-01T06:04:16.370Z,64.54
2022-09-01T06:07:06.436Z,64.59
2022-09-01T06:09:38.409Z,64.37
2022-09-01T06:12:07.002Z,64.22
2022-09-01T06:14:35.167Z,64.07
2022-09-01T06:17:03.449Z,64.15
2022-09-01T06:19:34.809Z,64.15
2022-09-01T06:22:04.368Z,63.81
2022-09-01T06:24:31.187Z,63.89
2022-09-01T06:26:59.822Z,63.89
2022-09-01T06:29:26.613Z,64.18
2022-09-01T06:31:53.451Z,64.36
2022-09-01T06:34:20.679Z,64.43
2022-09-01T06:36:50.448Z,63.99
2022-09-01T06:39:20.893Z,64.24
2022-09-01T06:41:49.756Z,64.07
2022-09-01T06:44:22.632Z,63.90
2022-09-01T06:46:50.499Z,63.90
2022-09-01T06:49:17.439Z,63.76
2022-09-01T06:51:44.974Z,63.79
2022-09-01T06:54:14.800Z,63.30
2022-09-01T06:56:44.982Z,63.49
2022-09-01T06:59:18.716Z,63.54
2022-09-01T07:01:46.086Z,63.79
2022-09-01T07:04:13.411Z,63.52
2022-09-01T07:09:47.071Z,63.07
2022-09-01T07:12:30.424Z,63.26
2022-09-01T07:17:52.645Z,62.41
2022-09-01T07:21:35.945Z,61.66
2022-09-01T07:23:12.717Z,61.00
2022-09-01T07:26:01.560Z,60.53
2022-09-01T07:28:40.443Z,60.59
2022-09-01T07:39:51.287Z,59.32
2022-09-01T07:48:01.837Z,57.96
2022-09-01T07:50:41.409Z,57.30
2022-09-01T07:53:19.893Z,56.58
2022-09-01T07:55:47.356Z,57.16
2022-09-01T07:58:14.386Z,56.05
2022-09-01T08:00:44.671Z,55.47
2022-09-01T08:03:11.673Z,55.12
2022-09-01T08:05:38.612Z,54.72
2022-09-01T08:08:18.647Z,54.12
2022-09-01T08:10:49.043Z,53.63
2022-09-01T08:13:20.015Z,53.04
2022-09-01T08:18:51.306Z,51.95
2022-09-01T08:21:22.148Z,51.42
2022-09-01T08:23:53.635Z,50.96
2022-09-01T08:26:23.325Z,51.40
2022-09-01T08:28:57.937Z,50.89
2022-09-01T08:31:26.163Z,50.91
2022-09-01T08:33:57.194Z,50.57
2022-09-01T08:36:25.949Z,50.51
2022-09-01T08:38:53.896Z,49.92
2022-09-01T08:41:50.865Z,49.13
2022-09-01T08:44:59.475Z,48.59
2022-09-01T08:47:39.285Z,48.11
2022-09-01T08:50:12.478Z,47.85
2022-09-01T08:52:45.216Z,47.49
2022-09-01T08:55:32.296Z,47.20
2022-09-01T08:58:00.963Z,46.53
2022-09-01T09:00:30.676Z,46.08
2022-09-01T09:03:40.972Z,46.34
2022-09-01T09:06:26.687Z,45.98
2022-09-01T09:09:08.539Z,46.46
2022-09-01T09:11:35.225Z,46.42
2022-09-01T09:14:22.020Z,46.55
2022-09-01T09:16:54.023Z,46.31
2022-09-01T09:19:34.528Z,46.47
2022-09-01T09:22:05.344Z,46.76
2022-09-01T09:24:53.179Z,47.05
2022-09-01T09:27:26.902Z,47.01
2022-09-01T09:30:08.024Z,46.81
2022-09-01T09:33:31.005Z,47.23
2022-09-01T09:35:46.255Z,47.29
2022-09-01T09:38:33.588Z,46.49
2022-09-01T09:41:27.055Z,46.58
2022-09-01T09:44:03.861Z,46.96
2022-09-01T09:46:39.631Z,47.02
2022-09-01T09:49:08.430Z,47.05
2022-09-01T09:51:36.401Z,46.38
2022-09-01T09:54:27.132Z,46.61
2022-09-01T09:57:08.896Z,46.50
2022-09-01T09:59:57.849Z,46.03
2022-09-01T10:02:28.481Z,46.01
2022-09-01T10:04:56.210Z,46.76
2022-09-01T10:07:32.615Z,45.86
2022-09-01T10:10:04.760Z,45.66
2022-09-01T10:12:33.324Z,45.44
2022-09-01T10:15:12.551Z,44.73
2022-09-01T10:17:43.949Z,43.35
2022-09-01T10:20:18.538Z,42.18
2022-09-01T10:22:48.572Z,40.65
2022-09-01T10:25:29.168Z,39.97
2022-09-01T10:28:10.149Z,39.09
2022-09-01T10:30:42.974Z,38.28
2022-09-01T10:33:19.191Z,37.46
2022-09-01T10:35:49.700Z,36.88
2022-09-01T10:38:28.441Z,36.61
2022-09-01T10:41:15.004Z,35.60
2022-09-01T10:43:45.550Z,35.68
2022-09-01T10:46:39.059Z,35.41
2022-09-01T10:49:25.179Z,35.49
2022-09-01T10:52:02.583Z,35.20
2022-09-01T10:54:50.885Z,35.20
2022-09-01T10:57:42.870Z,35.34
2022-09-01T11:00:37.306Z,35.23
2022-09-01T11:06:13.581Z,32.76
2022-09-01T11:08:44.050Z,31.78
2022-09-01T11:11:51.185Z,32.83
2022-09-01T11:14:23.058Z,32.86
2022-09-01T11:17:13.980Z,33.49
2022-09-01T11:19:47.793Z,33.61
2022-09-01T11:22:44.846Z,34.19
2022-09-01T11:25:14.561Z,34.10
2022-09-01T11:27:50.693Z,33.77
2022-09-01T11:30:46.085Z,33.63
2022-09-01T11:33:12.979Z,33.68
2022-09-01T11:35:40.228Z,33.17
2022-09-01T11:38:09.273Z,33.02
2022-09-01T11:40:36.913Z,32.70
2022-09-01T11:43:12.727Z,32.71
2022-09-01T11:45:53.773Z,32.38
2022-09-01T11:48:20.706Z,32.01
2022-09-01T11:50:59.981Z,31.34
2022-09-01T11:53:28.882Z,31.68
2022-09-01T11:56:12.053Z,31.17
2022-09-01T11:58:41.980Z,30.83
2022-09-01T12:01:14.711Z,30.61
2022-09-01T12:03:42.172Z,29.96
2022-09-01T12:06:12.309Z,30.92
2022-09-01T12:08:42.872Z,31.46
2022-09-01T12:11:21.380Z,30.69
2022-09-01T12:14:00.182Z,30.67
2022-09-01T12:16:29.150Z,29.30
2022-09-01T12:18:59.378Z,28.39
2022-09-01T12:21:43.007Z,28.51
2022-09-01T12:24:21.707Z,27.49
2022-09-01T12:26:53.417Z,27.01
2022-09-01T12:29:21.687Z,26.25
2022-09-01T12:31:50.998Z,25.72
2022-09-01T12:34:34.445Z,25.47
2022-09-01T12:37:12.138Z,25.03
2022-09-01T12:39:45.165Z,24.77
2022-09-01T12:42:24.448Z,24.93
2022-09-01T12:45:00.199Z,24.68
2022-09-01T12:47:36.222Z,25.53
2022-09-01T12:50:06.335Z,24.83
2022-09-01T12:52:35.675Z,24.49
2022-09-01T12:55:03.813Z,24.11
2022-09-01T12:57:35.179Z,24.92
2022-09-01T13:00:10.259Z,24.33
2022-09-01T13:02:40.116Z,23.73
2022-09-01T13:05:31.164Z,25.29
2022-09-01T13:08:07.625Z,25.26
2022-09-01T13:10:39.712Z,26.76
2022-09-01T13:13:08.040Z,29.45
2022-09-01T13:15:36.917Z,31.33
2022-09-01T13:18:03.816Z,32.52
2022-09-01T13:20:30.938Z,33.41
2022-09-01T13:22:57.748Z,34.67
2022-09-01T13:25:24.988Z,35.45
2022-09-01T13:27:53.280Z,36.13
2022-09-01T13:30:24.158Z,37.40
2022-09-01T13:35:38.055Z,38.15
2022-09-01T13:38:05.355Z,38.96
2022-09-01T13:40:32.263Z,39.67
2022-09-01T13:42:59.383Z,39.75
2022-09-01T13:45:26.481Z,40.66
2022-09-01T13:53:28.119Z,41.71
2022-09-01T13:55:55.060Z,42.20
2022-09-01T13:58:21.885Z,42.38
2022-09-01T14:00:51.093Z,42.65
2022-09-01T14:03:22.593Z,42.63
2022-09-01T14:05:50.262Z,42.61
2022-09-01T14:08:21.034Z,42.97
2022-09-01T14:10:51.259Z,43.08
2022-09-01T14:13:23.040Z,43.17
2022-09-01T14:15:52.197Z,43.75
2022-09-01T14:18:21.983Z,43.73
2022-09-01T14:20:51.572Z,44.00
2022-09-01T14:23:19.941Z,44.04
2022-09-01T14:25:49.877Z,44.12
2022-09-01T14:28:20.534Z,44.18
2022-09-01T14:30:48.159Z,44.55
2022-09-01T14:33:15.560Z,45.10
2022-09-01T14:35:45.793Z,45.04
2022-09-01T14:38:13.650Z,44.96
2022-09-01T14:40:41.917Z,45.15
2022-09-01T14:43:13.007Z,45.05
2022-09-01T14:45:41.345Z,45.28
2022-09-01T14:48:09.270Z,44.84
2022-09-01T14:50:42.305Z,45.11
2022-09-01T14:53:10.451Z,45.19
2022-09-01T14:55:37.217Z,45.28
2022-09-01T14:58:04.707Z,45.88
2022-09-01T15:00:35.369Z,45.98
2022-09-01T15:03:02.360Z,45.42
2022-09-01T15:05:29.517Z,45.67
2022-09-01T15:08:06.441Z,45.61
2022-09-01T15:10:34.425Z,46.01
2022-09-01T15:13:01.902Z,46.01
2022-09-01T15:15:30.029Z,46.13
2022-09-01T15:17:57.470Z,46.39
2022-09-01T15:20:43.784Z,46.06
2022-09-01T15:23:15.165Z,46.22
2022-09-01T15:25:42.267Z,46.64
2022-09-01T15:28:09.666Z,47.13
2022-09-01T15:30:37.484Z,47.11
2022-09-01T15:33:04.840Z,47.36
2022-09-01T15:35:32.647Z,47.23
2022-09-01T15:38:00.171Z,47.45
2022-09-01T15:40:28.410Z,47.80
2022-09-01T15:42:56.805Z,48.05
2022-09-01T15:45:25.423Z,48.17
2022-09-01T15:47:52.176Z,48.48
2022-09-01T15:50:22.360Z,48.50
2022-09-01T15:52:51.210Z,49.03
2022-09-01T15:55:21.182Z,48.91
2022-09-01T15:57:48.338Z,49.23
2022-09-01T16:00:17.228Z,49.23
2022-09-01T16:02:44.562Z,49.19
2022-09-01T16:05:12.775Z,49.54
2022-09-01T16:07:41.673Z,49.55
2022-09-01T16:10:12.260Z,50.00
2022-09-01T16:12:43.629Z,50.04
2022-09-01T16:15:14.353Z,49.96
2022-09-01T16:18:04.295Z,49.92
2022-09-01T16:20:49.742Z,50.47
2022-09-01T16:23:22.399Z,50.14
2022-09-01T16:25:49.494Z,50.01
2022-09-01T16:28:28.980Z,50.50
2022-09-01T16:31:16.482Z,50.12
2022-09-01T16:33:50.070Z,50.34
2022-09-01T16:36:43.089Z,50.27
2022-09-01T16:39:22.113Z,50.34
2022-09-01T16:42:13.568Z,50.43
2022-09-01T16:45:17.483Z,50.56
2022-09-01T16:47:50.211Z,50.80
2022-09-01T16:50:35.700Z,51.11
2022-09-01T16:53:18.121Z,51.18
2022-09-01T16:56:10.047Z,50.97
2022-09-01T16:58:59.794Z,50.74
2022-09-01T17:01:32.428Z,51.03
2022-09-01T17:04:21.910Z,51.21
2022-09-01T17:06:51.608Z,50.90
2022-09-01T17:09:26.557Z,50.98
2022-09-01T17:12:14.284Z,51.18
2022-09-01T17:14:47.708Z,51.16
2022-09-01T17:17:20.553Z,51.15
2022-09-01T17:19:52.712Z,51.43
2022-09-01T17:22:21.044Z,51.45
2022-09-01T17:24:58.373Z,51.26
2022-09-01T17:27:53.297Z,51.16
2022-09-01T17:30:20.179Z,51.64
2022-09-01T17:33:13.039Z,51.83
2022-09-01T17:35:59.408Z,51.96
2022-09-01T17:38:54.211Z,52.27
2022-09-01T17:41:34.498Z,52.00
2022-09-01T17:44:18.594Z,52.66
2022-09-01T17:47:03.647Z,52.08
2022-09-01T17:49:45.802Z,52.33
2022-09-01T17:52:28.844Z,52.51
2022-09-01T17:55:17.763Z,52.80
2022-09-01T17:57:56.330Z,52.69
2022-09-01T18:00:38.689Z,52.77
2022-09-01T18:03:35.847Z,53.09
2022-09-01T18:06:34.473Z,53.30
2022-09-01T18:09:02.767Z,53.30
2022-09-01T18:11:36.637Z,53.01
2022-09-01T18:14:16.182Z,53.11
2022-09-01T18:16:57.499Z,53.06
2022-09-01T18:19:29.524Z,53.27
2022-09-01T18:22:10.652Z,53.40
2022-09-01T18:24:47.626Z,53.83
2022-09-01T18:27:14.488Z,53.79
2022-09-01T18:29:41.317Z,53.81
2022-09-01T18:32:37.431Z,53.62
2022-09-01T18:35:26.911Z,53.84
2022-09-01T18:38:09.394Z,53.94
2022-09-01T18:41:04.679Z,54.45
2022-09-01T18:43:49.802Z,54.53
2022-09-01T18:46:16.529Z,54.92
2022-09-01T18:49:15.618Z,54.54
2022-09-01T18:52:16.556Z,54.87
2022-09-01T18:55:16.839Z,54.97
2022-09-01T18:57:46.526Z,55.54
2022-09-01T19:00:18.791Z,54.88
2022-09-01T19:03:01.491Z,55.30
2022-09-01T19:05:41.589Z,55.06
2022-09-01T19:08:20.635Z,55.38
2022-09-01T19:11:09.517Z,55.55
2022-09-01T19:13:59.654Z,55.81
2022-09-01T19:16:56.530Z,55.69
2022-09-01T19:19:49.505Z,55.53
2022-09-01T19:22:27.641Z,55.88
2022-09-01T19:25:21.402Z,56.58
2022-09-01T19:28:16.451Z,56.35
2022-09-01T19:30:51.905Z,56.29
2022-09-01T19:33:29.221Z,56.44
2022-09-01T19:36:02.691Z,56.49
2022-09-01T19:38:30.471Z,55.89
2022-09-01T19:41:17.629Z,55.55
2022-09-01T19:43:44.463Z,56.14
2022-09-01T19:46:55.886Z,55.92
2022-09-01T19:49:45.991Z,55.71
2022-09-01T19:52:35.482Z,56.56
2022-09-01T19:55:11.684Z,56.75
2022-09-01T19:57:53.875Z,56.58
2022-09-01T20:00:36.708Z,56.47
2022-09-01T20:03:13.211Z,57.09
2022-09-01T20:05:46.727Z,57.06
2022-09-01T20:08:27.380Z,56.71
2022-09-01T20:10:57.120Z,57.33
2022-09-01T20:13:44.071Z,56.78
2022-09-01T20:16:45.083Z,57.10
2022-09-01T20:19:37.533Z,56.68
2022-09-01T20:22:38.966Z,56.75
2022-09-01T20:25:13.051Z,57.39
2022-09-01T20:28:18.570Z,57.59
2022-09-01T20:30:53.362Z,58.02
2022-09-01T20:33:43.037Z,58.21
2022-09-01T20:36:32.435Z,57.96
2022-09-01T20:39:35.155Z,58.01
2022-09-01T20:42:20.079Z,58.62
2022-09-01T20:44:57.803Z,58.66
2022-09-01T20:47:30.476Z,58.65
2022-09-01T20:50:02.615Z,58.70
2022-09-01T20:52:53.723Z,58.91
2022-09-01T20:55:37.775Z,58.57
2022-09-01T20:58:42.189Z,58.84
2022-09-01T21:01:48.925Z,58.58
2022-09-01T21:04:35.058Z,58.90
2022-09-01T21:07:10.037Z,59.29
2022-09-01T21:10:01.096Z,59.09
2022-09-01T21:12:54.198Z,59.37
2022-09-01T21:15:39.923Z,59.20
2022-09-01T21:18:15.749Z,59.30
2022-09-01T21:21:19.869Z,59.61
2022-09-01T21:23:46.604Z,59.70
2022-09-01T21:26:14.057Z,59.95
2022-09-01T21:28:43.907Z,59.98
2022-09-01T21:31:13.117Z,60.33
2022-09-01T21:33:39.929Z,60.75
2022-09-01T21:36:07.153Z,60.33
2022-09-01T21:38:33.948Z,60.63
2022-09-01T21:41:01.631Z,60.57
2022-09-01T21:43:36.605Z,60.50
2022-09-01T21:46:03.607Z,60.44
2022-09-01T21:49:01.513Z,60.44
2022-09-01T21:51:37.238Z,60.52
2022-09-01T21:54:04.281Z,60.65
2022-09-01T21:56:31.823Z,60.97
2022-09-01T21:58:59.580Z,60.88
2022-09-01T22:01:31.344Z,60.75
2022-09-01T22:03:59.210Z,60.85
2022-09-01T22:06:26.530Z,60.72
2022-09-01T22:08:54.524Z,60.56
2022-09-01T22:11:22.011Z,60.69
2022-09-01T22:13:52.556Z,60.91
2022-09-01T22:16:21.428Z,60.75
2022-09-01T22:18:48.414Z,60.66
2022-09-01T22:21:16.942Z,61.23
2022-09-01T22:23:44.472Z,61.09
2022-09-01T22:26:20.041Z,60.82
2022-09-01T22:28:47.411Z,60.87
2022-09-01T22:31:16.381Z,61.15
2022-09-01T22:33:43.752Z,61.10
2022-09-01T22:36:10.816Z,61.09
2022-09-01T22:38:37.581Z,61.01
2022-09-01T22:41:04.316Z,61.07
2022-09-01T22:43:31.318Z,61.15
2022-09-01T22:45:59.584Z,61.15
2022-09-01T22:48:27.643Z,61.14
2022-09-01T22:50:54.547Z,61.64
2022-09-01T22:53:22.668Z,61.64
2022-09-01T22:55:51.657Z,61.12
2022-09-01T22:58:19.422Z,60.56
2022-09-01T23:00:50.131Z,60.98
2022-09-01T23:03:18.386Z,60.68
2022-09-01T23:05:47.010Z,60.73
2022-09-01T23:08:14.983Z,61.04
2022-09-01T23:10:42.138Z,61.16
2022-09-01T23:13:10.168Z,61.11
2022-09-01T23:15:37.964Z,61.21
2022-09-01T23:18:04.869Z,61.28
2022-09-01T23:20:31.815Z,61.42
2022-09-01T23:22:58.576Z,61.14
2022-09-01T23:25:25.636Z,61.15
2022-09-01T23:27:52.503Z,61.50
2022-09-01T23:30:19.371Z,61.49
2022-09-01T23:32:46.290Z,61.79
2022-09-01T23:35:13.831Z,61.80
2022-09-01T23:37:43.310Z,61.51
2022-09-01T23:40:10.606Z,61.10
2022-09-01T23:42:37.571Z,61.04
2022-09-01T23:45:06.080Z,61.46
2022-09-01T23:47:33.019Z,61.70
2022-09-01T23:50:00.139Z,61.98
2022-09-01T23:52:27.020Z,62.00
2022-09-01T23:54:54.709Z,61.83
2022-09-01T23:57:21.569Z,62.07
2022-09-01T23:59:48.295Z,62.41
